createdAt,value
2023-02-12T00:01:08.781Z,10.23
2023-02-12T00:03:35.836Z,10.25
2023-02-12T00:06:02.501Z,10.70
2023-02-12T00:08:29.444Z,10.98
2023-02-12T00:10:56.142Z,10.48
2023-02-12T00:13:22.698Z,10.83
2023-02-12T00:15:49.260Z,11.30
2023-02-12T00:18:15.969Z,10.77
2023-02-12T00:20:42.485Z,11.02
2023-02-12T00:23:10.516Z,10.25
2023-02-12T00:25:40.916Z,10.20
2023-02-12T00:28:07.473Z,10.13
2023-02-12T00:30:34.037Z,10.90
2023-02-12T00:33:00.679Z,10.95
2023-02-12T00:35:27.269Z,10.18
2023-02-12T00:37:53.869Z,10.43
2023-02-12T00:40:20.730Z,10.98
2023-02-12T00:42:47.252Z,10.77
2023-02-12T00:45:13.772Z,10.82
2023-02-12T00:47:40.294Z,10.30
2023-02-12T00:50:08.117Z,10.67
2023-02-12T00:52:35.163Z,11.30
2023-02-12T00:55:02.409Z,10.80
2023-02-12T00:57:28.943Z,11.05
2023-02-12T00:59:56.411Z,10.50
2023-02-12T01:02:23.559Z,10.20
2023-02-12T01:04:50.101Z,10.63
2023-02-12T01:07:16.613Z,10.50
2023-02-12T01:09:43.172Z,10.30
2023-02-12T01:12:09.716Z,10.50
2023-02-12T01:14:36.157Z,9.93
2023-02-12T01:17:03.552Z,10.65
2023-02-12T01:19:30.139Z,10.23
2023-02-12T01:21:56.638Z,9.93
2023-02-12T01:24:23.197Z,10.25
2023-02-12T01:26:50.544Z,10.53
2023-02-12T01:29:17.361Z,10.02
2023-02-12T01:31:44.000Z,9.77
2023-02-12T01:34:11.702Z,9.77
2023-02-12T01:36:38.951Z,10.32
2023-02-12T01:39:06.561Z,10.37
2023-02-12T01:41:39.563Z,10.60
2023-02-12T01:44:11.361Z,10.82
2023-02-12T01:46:38.692Z,9.50
2023-02-12T01:49:09.229Z,9.85
2023-02-12T01:51:36.550Z,10.73
2023-02-12T01:54:06.841Z,10.48
2023-02-12T01:56:33.722Z,10.40
2023-02-12T01:59:00.748Z,10.25
2023-02-12T02:01:30.724Z,11.05
2023-02-12T02:04:02.369Z,9.77
2023-02-12T02:06:34.878Z,10.05
2023-02-12T02:09:02.689Z,10.40
2023-02-12T02:11:47.869Z,10.95
2023-02-12T02:14:32.518Z,11.30
2023-02-12T02:17:04.581Z,10.33
2023-02-12T02:20:01.638Z,10.20
2023-02-12T02:22:40.927Z,10.27
2023-02-12T02:25:45.226Z,10.55
2023-02-12T02:28:11.724Z,10.90
2023-02-12T02:30:51.708Z,10.93
2023-02-12T02:33:29.946Z,10.50
2023-02-12T02:36:05.347Z,11.38
2023-02-12T02:38:41.830Z,10.80
2023-02-12T02:41:26.136Z,10.25
2023-02-12T02:43:53.297Z,11.30
2023-02-12T02:46:59.359Z,10.68
2023-02-12T02:49:33.790Z,10.32
2023-02-12T02:52:08.140Z,10.40
2023-02-12T02:54:39.914Z,11.30
2023-02-12T02:57:14.041Z,10.93
2023-02-12T02:59:46.458Z,10.63
2023-02-12T03:02:19.985Z,9.90
2023-02-12T03:04:52.660Z,10.20
2023-02-12T03:07:29.571Z,10.35
2023-02-12T03:10:16.346Z,10.47
2023-02-12T03:12:54.049Z,10.10
2023-02-12T03:15:46.148Z,10.00
2023-02-12T03:18:19.665Z,9.90
2023-02-12T03:20:53.050Z,10.15
2023-02-12T03:23:25.372Z,10.80
2023-02-12T03:26:05.910Z,10.98
2023-02-12T03:28:36.579Z,10.38
2023-02-12T03:31:18.229Z,10.20
2023-02-12T03:34:13.693Z,10.65
2023-02-12T03:36:55.973Z,10.03
2023-02-12T03:39:29.897Z,9.93
2023-02-12T03:42:09.056Z,10.00
2023-02-12T03:44:46.880Z,10.15
2023-02-12T03:47:39.520Z,10.82
2023-02-12T03:50:32.448Z,9.93
2023-02-12T03:52:58.984Z,9.85
2023-02-12T03:55:25.880Z,10.30
2023-02-12T03:58:00.964Z,10.25
2023-02-12T04:00:27.985Z,10.10
2023-02-12T04:02:55.073Z,10.57
2023-02-12T04:05:25.895Z,10.55
2023-02-12T04:07:54.850Z,10.52
2023-02-12T04:10:32.065Z,10.20
2023-02-12T04:13:25.264Z,10.98
2023-02-12T04:16:22.432Z,10.17
2023-02-12T04:18:52.347Z,10.43
2023-02-12T04:21:48.043Z,10.25
2023-02-12T04:24:53.002Z,9.95
2023-02-12T04:27:26.418Z,10.57
2023-02-12T04:30:00.445Z,10.37
2023-02-12T04:32:45.124Z,10.77
2023-02-12T04:35:25.436Z,10.73
2023-02-12T04:37:58.794Z,11.95
2023-02-12T04:40:25.835Z,11.07
2023-02-12T04:42:53.308Z,11.07
2023-02-12T04:45:27.436Z,9.93
2023-02-12T04:47:53.967Z,10.82
2023-02-12T04:50:21.110Z,11.07
2023-02-12T04:52:47.633Z,11.18
2023-02-12T04:55:14.390Z,10.33
2023-02-12T04:57:40.947Z,11.45
2023-02-12T05:00:09.078Z,11.73
2023-02-12T05:02:36.340Z,11.45
2023-02-12T05:05:02.881Z,11.07
2023-02-12T05:07:29.355Z,11.37
2023-02-12T05:09:55.854Z,11.77
2023-02-12T05:12:22.412Z,12.85
2023-02-12T05:14:48.937Z,13.18
2023-02-12T05:17:15.450Z,11.95
2023-02-12T05:19:41.939Z,11.77
2023-02-12T05:22:08.445Z,12.68
2023-02-12T05:24:34.956Z,13.15
2023-02-12T05:27:01.537Z,14.05
2023-02-12T05:29:28.030Z,12.88
2023-02-12T05:31:54.567Z,13.60
2023-02-12T05:34:21.114Z,13.32
2023-02-12T05:36:47.615Z,14.18
2023-02-12T05:39:14.147Z,14.60
2023-02-12T05:41:40.696Z,14.10
2023-02-12T05:44:07.133Z,13.93
2023-02-12T05:46:34.003Z,14.27
2023-02-12T05:49:00.574Z,16.13
2023-02-12T05:51:28.024Z,15.85
2023-02-12T05:54:03.762Z,16.42
2023-02-12T05:56:32.635Z,15.53
2023-02-12T05:59:05.697Z,15.80
2023-02-12T06:01:37.850Z,15.23
2023-02-12T06:04:06.645Z,15.88
2023-02-12T06:06:34.333Z,15.02
2023-02-12T06:09:01.349Z,15.10
2023-02-12T06:11:28.636Z,16.45
2023-02-12T06:13:55.196Z,16.10
2023-02-12T06:16:24.486Z,16.88
2023-02-12T06:18:51.946Z,16.50
2023-02-12T06:21:19.989Z,16.27
2023-02-12T06:23:47.244Z,15.05
2023-02-12T06:26:13.893Z,15.80
2023-02-12T06:28:40.445Z,15.15
2023-02-12T06:31:18.268Z,15.82
2023-02-12T06:33:44.909Z,16.30
2023-02-12T06:36:11.434Z,18.55
2023-02-12T06:38:37.978Z,18.20
2023-02-12T06:41:04.825Z,18.25
2023-02-12T06:43:31.472Z,18.70
2023-02-12T06:46:01.720Z,20.03
2023-02-12T06:48:28.558Z,19.17
2023-02-12T06:50:55.072Z,19.65
2023-02-12T06:53:21.686Z,20.25
2023-02-12T06:55:48.185Z,21.00
2023-02-12T06:58:14.652Z,20.47
2023-02-12T07:00:41.210Z,19.83
2023-02-12T07:03:07.745Z,19.52
2023-02-12T07:05:37.742Z,20.35
2023-02-12T07:08:04.291Z,20.80
2023-02-12T07:10:30.837Z,22.00
2023-02-12T07:12:57.472Z,20.95
2023-02-12T07:15:23.947Z,22.02
2023-02-12T07:17:50.626Z,21.80
2023-02-12T07:20:17.203Z,19.90
2023-02-12T07:22:43.864Z,19.33
2023-02-12T07:25:10.618Z,20.90
2023-02-12T07:27:38.143Z,22.60
2023-02-12T07:30:06.551Z,21.35
2023-02-12T07:32:34.484Z,21.98
2023-02-12T07:35:01.132Z,21.47
2023-02-12T07:37:27.744Z,22.40
2023-02-12T07:39:54.425Z,22.55
2023-02-12T07:42:21.214Z,22.60
2023-02-12T07:44:49.903Z,22.30
2023-02-12T07:47:16.930Z,23.20
2023-02-12T07:49:43.582Z,22.65
2023-02-12T07:52:12.206Z,21.17
2023-02-12T07:54:39.951Z,23.05
2023-02-12T07:57:06.463Z,21.48
2023-02-12T07:59:33.006Z,23.00
2023-02-12T08:02:00.966Z,22.38
2023-02-12T08:04:27.681Z,22.38
2023-02-12T08:06:55.714Z,20.67
2023-02-12T08:09:24.762Z,22.65
2023-02-12T08:11:51.734Z,22.10
2023-02-12T08:14:20.712Z,22.13
2023-02-12T08:16:49.330Z,23.70
2023-02-12T08:19:20.986Z,22.08
2023-02-12T08:21:50.765Z,22.67
2023-02-12T08:24:17.384Z,21.73
2023-02-12T08:26:44.441Z,21.30
2023-02-12T08:29:14.369Z,21.10
2023-02-12T08:31:47.453Z,21.63
2023-02-12T08:34:23.201Z,21.25
2023-02-12T08:36:51.847Z,22.83
2023-02-12T08:39:18.584Z,22.90
2023-02-12T08:41:46.172Z,23.15
2023-02-12T08:44:13.952Z,21.92
2023-02-12T08:46:46.652Z,21.50
2023-02-12T08:49:24.975Z,22.70
2023-02-12T08:51:54.324Z,21.58
2023-02-12T08:54:26.402Z,21.35
2023-02-12T08:57:01.150Z,21.63
2023-02-12T08:59:27.954Z,20.38
2023-02-12T09:01:55.112Z,19.60
2023-02-12T09:04:24.169Z,21.42
2023-02-12T09:06:51.799Z,20.40
2023-02-12T09:09:19.880Z,21.58
2023-02-12T09:11:47.105Z,20.58
2023-02-12T09:14:16.717Z,19.83
2023-02-12T09:16:43.469Z,19.92
2023-02-12T09:19:13.168Z,19.60
2023-02-12T09:21:39.789Z,19.90
2023-02-12T09:24:06.394Z,19.60
2023-02-12T09:26:32.957Z,20.00
2023-02-12T09:29:02.155Z,19.85
2023-02-12T09:31:30.558Z,18.98
2023-02-12T09:34:02.706Z,18.42
2023-02-12T09:36:30.041Z,18.17
2023-02-12T09:38:59.136Z,17.83
2023-02-12T09:42:03.370Z,17.13
2023-02-12T09:44:57.773Z,18.02
2023-02-12T09:47:31.175Z,16.75
2023-02-12T09:50:44.100Z,17.13
2023-02-12T09:53:14.921Z,16.67
2023-02-12T09:55:41.466Z,16.02
2023-02-12T09:58:15.740Z,17.08
2023-02-12T10:00:42.346Z,15.43
2023-02-12T10:03:17.242Z,15.43
2023-02-12T10:05:55.397Z,15.77
2023-02-12T10:08:56.001Z,14.52
2023-02-12T10:11:38.720Z,15.07
2023-02-12T10:14:37.258Z,14.40
2023-02-12T10:17:25.256Z,14.68
2023-02-12T10:20:32.286Z,13.63
2023-02-12T10:23:16.864Z,14.18
2023-02-12T10:25:56.809Z,14.23
2023-02-12T10:28:28.609Z,13.25
2023-02-12T10:31:00.210Z,13.73
2023-02-12T10:33:31.782Z,13.27
2023-02-12T10:36:05.074Z,12.57
2023-02-12T10:38:36.408Z,13.25
2023-02-12T10:41:03.033Z,12.68
2023-02-12T10:43:30.321Z,11.70
2023-02-12T10:45:57.343Z,14.13
2023-02-12T10:48:33.094Z,10.63
2023-02-12T10:51:08.607Z,11.68
2023-02-12T10:53:41.544Z,9.30
2023-02-12T10:56:12.103Z,8.60
2023-02-12T10:58:50.531Z,6.93
2023-02-12T11:01:19.798Z,10.57
2023-02-12T11:03:46.295Z,13.02
2023-02-12T11:06:35.238Z,12.75
2023-02-12T11:09:02.953Z,12.23
2023-02-12T11:11:31.564Z,11.30
2023-02-12T11:14:16.329Z,12.40
2023-02-12T11:16:58.669Z,10.48
2023-02-12T11:19:27.794Z,11.27
2023-02-12T11:22:10.192Z,10.77
2023-02-12T11:24:37.810Z,8.80
2023-02-12T11:27:21.466Z,9.07
2023-02-12T11:30:10.394Z,8.40
2023-02-12T11:32:37.542Z,9.50
2023-02-12T11:35:15.331Z,9.60
2023-02-12T11:37:44.676Z,9.70
2023-02-12T11:40:19.129Z,10.68
2023-02-12T11:42:50.563Z,9.88
2023-02-12T11:45:22.621Z,11.35
2023-02-12T11:47:50.694Z,10.38
2023-02-12T11:50:32.841Z,10.10
2023-02-12T11:53:04.590Z,10.90
2023-02-12T11:55:34.918Z,10.55
2023-02-12T11:58:12.415Z,10.23
2023-02-12T12:00:54.364Z,9.93
2023-02-12T12:03:51.739Z,10.23
2023-02-12T12:06:31.214Z,9.50
2023-02-12T12:09:12.865Z,9.55
2023-02-12T12:12:13.792Z,8.68
2023-02-12T12:15:06.743Z,8.95
2023-02-12T12:18:16.875Z,8.47
2023-02-12T12:20:58.133Z,9.38
2023-02-12T12:23:45.809Z,9.35
2023-02-12T12:26:34.430Z,9.40
2023-02-12T12:29:06.620Z,8.50
2023-02-12T12:31:37.980Z,7.67
2023-02-12T12:34:14.417Z,7.25
2023-02-12T12:36:59.641Z,8.23
2023-02-12T12:39:28.935Z,8.63
2023-02-12T12:42:33.278Z,8.85
2023-02-12T12:45:33.897Z,9.47
2023-02-12T12:48:17.194Z,9.00
2023-02-12T12:51:22.640Z,9.18
2023-02-12T12:54:21.838Z,9.13
2023-02-12T12:57:03.622Z,9.50
2023-02-12T12:59:51.677Z,10.73
2023-02-12T13:02:27.483Z,13.63
2023-02-12T13:05:22.100Z,12.75
2023-02-12T13:08:06.719Z,11.48
2023-02-12T13:10:49.673Z,12.63
2023-02-12T13:13:26.347Z,11.73
2023-02-12T13:16:30.226Z,12.50
2023-02-12T13:19:21.415Z,11.93
2023-02-12T13:22:05.070Z,12.38
2023-02-12T13:24:49.997Z,12.70
2023-02-12T13:27:22.892Z,11.27
2023-02-12T13:29:53.653Z,12.60
2023-02-12T13:32:25.999Z,13.15
2023-02-12T13:34:54.812Z,13.27
2023-02-12T13:37:35.333Z,12.02
2023-02-12T13:40:06.475Z,11.50
2023-02-12T13:42:40.189Z,11.00
2023-02-12T13:45:19.159Z,10.63
2023-02-12T13:48:20.445Z,11.27
2023-02-12T13:51:01.474Z,10.90
2023-02-12T13:53:57.710Z,11.83
2023-02-12T13:56:29.318Z,10.88
2023-02-12T13:58:56.345Z,11.98
2023-02-12T14:01:45.834Z,9.73
2023-02-12T14:04:26.320Z,10.65
2023-02-12T14:07:01.929Z,10.67
2023-02-12T14:09:38.131Z,10.50
2023-02-12T14:12:08.899Z,9.70
2023-02-12T14:14:42.935Z,9.98
2023-02-12T14:17:28.304Z,10.40
2023-02-12T14:19:56.113Z,9.47
2023-02-12T14:22:42.467Z,9.18
2023-02-12T14:25:15.147Z,9.30
2023-02-12T14:27:53.595Z,9.35
2023-02-12T14:30:33.398Z,9.85
2023-02-12T14:33:22.092Z,9.87
2023-02-12T14:36:09.966Z,9.90
2023-02-12T14:38:47.143Z,8.43
2023-02-12T14:41:43.110Z,9.70
2023-02-12T14:44:23.163Z,9.93
2023-02-12T14:46:52.711Z,10.73
2023-02-12T14:49:19.249Z,9.45
2023-02-12T14:51:54.739Z,10.55
2023-02-12T14:54:43.103Z,9.63
2023-02-12T14:57:27.154Z,9.80
2023-02-12T15:00:16.978Z,9.33
2023-02-12T15:02:54.425Z,9.48
2023-02-12T15:05:23.505Z,9.35
2023-02-12T15:07:58.392Z,9.93
2023-02-12T15:10:31.908Z,8.80
2023-02-12T15:13:18.317Z,9.97
2023-02-12T15:15:53.049Z,8.93
2023-02-12T15:18:42.359Z,9.82
2023-02-12T15:21:29.135Z,9.60
2023-02-12T15:24:03.622Z,10.00
2023-02-12T15:26:33.870Z,10.10
2023-02-12T15:29:01.490Z,9.27
2023-02-12T15:31:30.511Z,8.85
2023-02-12T15:33:59.331Z,9.30
2023-02-12T15:36:29.356Z,9.30
2023-02-12T15:39:06.338Z,9.17
2023-02-12T15:41:32.801Z,9.63
2023-02-12T15:44:18.884Z,10.30
2023-02-12T15:47:12.386Z,9.80
2023-02-12T15:49:40.812Z,9.50
2023-02-12T15:52:18.105Z,9.00
2023-02-12T15:54:48.582Z,9.55
2023-02-12T15:57:22.298Z,10.63
2023-02-12T15:59:53.489Z,9.38
2023-02-12T16:02:24.981Z,10.23
2023-02-12T16:04:51.434Z,9.63
2023-02-12T16:07:19.302Z,10.55
2023-02-12T16:09:46.897Z,11.25
2023-02-12T16:12:18.275Z,10.75
2023-02-12T16:14:52.638Z,11.05
2023-02-12T16:17:25.145Z,11.37
2023-02-12T16:19:59.153Z,10.77
2023-02-12T16:22:32.780Z,11.25
2023-02-12T16:25:00.382Z,12.27
2023-02-12T16:27:32.286Z,11.98
2023-02-12T16:30:31.944Z,11.70
2023-02-12T16:32:59.922Z,11.00
2023-02-12T16:35:31.053Z,10.57
2023-02-12T16:38:01.267Z,11.63
2023-02-12T16:40:34.111Z,11.70
2023-02-12T16:43:04.121Z,11.00
2023-02-12T16:45:36.928Z,11.48
2023-02-12T16:48:09.266Z,12.35
2023-02-12T16:50:39.421Z,11.60
2023-02-12T16:53:22.904Z,10.88
2023-02-12T16:55:49.844Z,10.97
2023-02-12T16:58:16.449Z,10.88
2023-02-12T17:00:42.973Z,11.40
2023-02-12T17:03:14.159Z,11.10
2023-02-12T17:05:42.697Z,11.15
2023-02-12T17:08:17.459Z,12.07
2023-02-12T17:10:48.197Z,10.88
2023-02-12T17:13:16.113Z,11.73
2023-02-12T17:15:52.650Z,11.25
2023-02-12T17:18:20.130Z,11.85
2023-02-12T17:20:52.835Z,11.00
2023-02-12T17:23:19.656Z,11.98
2023-02-12T17:25:46.146Z,11.43
2023-02-12T17:28:12.700Z,13.23
2023-02-12T17:30:39.363Z,13.63
2023-02-12T17:33:05.826Z,12.17
2023-02-12T17:35:32.399Z,13.73
2023-02-12T17:37:58.939Z,11.88
2023-02-12T17:40:25.586Z,11.57
2023-02-12T17:42:52.106Z,12.50
2023-02-12T17:45:19.110Z,12.40
2023-02-12T17:47:45.687Z,12.25
2023-02-12T17:50:15.557Z,11.63
2023-02-12T17:52:42.817Z,11.93
2023-02-12T17:55:11.490Z,12.10
2023-02-12T17:57:38.120Z,12.53
2023-02-12T18:00:06.454Z,12.73
2023-02-12T18:02:37.319Z,12.43
2023-02-12T18:05:04.277Z,11.80
2023-02-12T18:07:33.833Z,12.65
2023-02-12T18:10:00.300Z,12.03
2023-02-12T18:12:26.867Z,12.85
2023-02-12T18:14:58.438Z,12.93
2023-02-12T18:17:25.199Z,13.75
2023-02-12T18:19:52.469Z,13.10
2023-02-12T18:22:19.067Z,13.53
2023-02-12T18:24:45.575Z,12.25
2023-02-12T18:27:13.330Z,11.77
2023-02-12T18:29:40.245Z,12.10
2023-02-12T18:32:07.326Z,11.10
2023-02-12T18:34:34.104Z,11.07
2023-02-12T18:37:00.757Z,12.20
2023-02-12T18:39:27.300Z,11.38
2023-02-12T18:41:53.866Z,11.18
2023-02-12T18:44:20.404Z,12.30
2023-02-12T18:46:46.886Z,11.63
2023-02-12T18:49:14.904Z,11.65
2023-02-12T18:51:41.462Z,12.30
2023-02-12T18:54:11.929Z,11.18
2023-02-12T18:56:43.605Z,12.75
2023-02-12T18:59:13.692Z,14.13
2023-02-12T19:01:40.355Z,13.35
2023-02-12T19:04:09.500Z,13.55
2023-02-12T19:06:45.504Z,13.68
2023-02-12T19:09:16.416Z,14.07
2023-02-12T19:11:46.603Z,13.20
2023-02-12T19:14:17.217Z,15.35
2023-02-12T19:16:44.932Z,17.13
2023-02-12T19:19:12.300Z,17.30
2023-02-12T19:21:39.629Z,14.10
2023-02-12T19:24:06.449Z,18.10
2023-02-12T19:26:36.043Z,15.40
2023-02-12T19:29:04.093Z,16.42
2023-02-12T19:31:34.150Z,18.85
2023-02-12T19:34:03.911Z,16.88
2023-02-12T19:36:32.858Z,15.27
2023-02-12T19:38:59.607Z,15.30
2023-02-12T19:41:27.998Z,13.77
2023-02-12T19:43:56.125Z,15.23
2023-02-12T19:46:22.705Z,14.45
2023-02-12T19:48:49.388Z,13.73
2023-02-12T19:51:18.615Z,13.82
2023-02-12T19:53:46.355Z,12.80
2023-02-12T19:56:13.990Z,12.93
2023-02-12T19:58:40.814Z,13.13
2023-02-12T20:01:13.112Z,14.23
2023-02-12T20:03:40.200Z,12.75
2023-02-12T20:06:13.764Z,12.32
2023-02-12T20:08:41.955Z,13.90
2023-02-12T20:11:13.902Z,12.63
2023-02-12T20:13:40.862Z,12.23
2023-02-12T20:16:10.765Z,12.57
2023-02-12T20:18:38.188Z,11.45
2023-02-12T20:21:13.443Z,12.63
2023-02-12T20:23:40.061Z,10.60
2023-02-12T20:26:08.097Z,11.63
2023-02-12T20:28:36.052Z,11.30
2023-02-12T20:31:30.917Z,11.50
2023-02-12T20:34:00.231Z,11.65
2023-02-12T20:36:29.459Z,11.35
2023-02-12T20:38:56.805Z,11.40
2023-02-12T20:41:24.758Z,12.02
2023-02-12T20:43:51.548Z,12.48
2023-02-12T20:46:21.145Z,11.85
2023-02-12T20:48:48.505Z,11.52
2023-02-12T20:51:19.042Z,11.20
2023-02-12T20:53:46.560Z,11.43
2023-02-12T20:56:18.036Z,12.20
2023-02-12T20:58:45.885Z,11.50
2023-02-12T21:01:17.035Z,11.48
2023-02-12T21:03:44.393Z,11.37
2023-02-12T21:06:11.158Z,12.95
2023-02-12T21:08:39.437Z,16.08
2023-02-12T21:11:17.234Z,15.98
2023-02-12T21:13:58.559Z,15.30
2023-02-12T21:16:41.118Z,15.10
2023-02-12T21:19:08.757Z,15.20
2023-02-12T21:21:38.035Z,13.30
2023-02-12T21:24:08.565Z,13.00
2023-02-12T21:26:36.038Z,14.15
2023-02-12T21:29:03.992Z,14.03
2023-02-12T21:31:39.512Z,13.15
2023-02-12T21:34:07.503Z,14.70
2023-02-12T21:36:37.544Z,13.55
2023-02-12T21:39:08.872Z,13.82
2023-02-12T21:41:38.127Z,13.27
2023-02-12T21:44:07.492Z,13.25
2023-02-12T21:46:35.308Z,12.93
2023-02-12T21:49:02.269Z,13.88
2023-02-12T21:51:34.492Z,13.70
2023-02-12T21:54:03.779Z,12.80
2023-02-12T21:56:30.528Z,12.60
2023-02-12T21:58:59.097Z,12.77
2023-02-12T22:01:28.488Z,12.23
2023-02-12T22:03:55.571Z,12.88
2023-02-12T22:06:24.659Z,12.30
2023-02-12T22:08:55.538Z,11.55
2023-02-12T22:11:23.392Z,11.18
2023-02-12T22:13:50.190Z,12.40
2023-02-12T22:16:19.603Z,12.35
2023-02-12T22:18:47.435Z,12.37
2023-02-12T22:21:15.845Z,13.23
2023-02-12T22:23:43.567Z,11.55
2023-02-12T22:26:15.532Z,11.82
2023-02-12T22:28:44.194Z,11.32
2023-02-12T22:31:12.666Z,11.87
2023-02-12T22:33:39.285Z,12.05
2023-02-12T22:36:08.518Z,11.13
2023-02-12T22:38:36.223Z,12.40
2023-02-12T22:41:03.269Z,11.40
2023-02-12T22:43:30.954Z,11.57
2023-02-12T22:45:58.441Z,11.70
2023-02-12T22:48:28.114Z,12.13
2023-02-12T22:50:56.025Z,12.10
2023-02-12T22:53:23.834Z,12.13
2023-02-12T22:55:50.565Z,12.23
2023-02-12T22:58:17.184Z,11.88
2023-02-12T23:00:43.917Z,10.18
2023-02-12T23:03:11.008Z,12.18
2023-02-12T23:05:38.796Z,12.40
2023-02-12T23:08:06.177Z,12.30
2023-02-12T23:10:33.030Z,11.68
2023-02-12T23:12:59.573Z,11.93
2023-02-12T23:15:26.143Z,11.80
2023-02-12T23:17:52.618Z,12.15
2023-02-12T23:20:19.346Z,11.47
2023-02-12T23:22:46.006Z,12.48
2023-02-12T23:25:12.775Z,12.50
2023-02-12T23:27:39.359Z,10.93
2023-02-12T23:30:06.435Z,12.45
2023-02-12T23:32:32.978Z,12.37
2023-02-12T23:34:59.477Z,11.60
2023-02-12T23:37:25.959Z,11.65
2023-02-12T23:39:52.426Z,9.73
2023-02-12T23:42:19.064Z,11.00
2023-02-12T23:44:45.510Z,11.30
2023-02-12T23:47:12.013Z,12.45
2023-02-12T23:49:38.789Z,11.60
2023-02-12T23:52:05.288Z,11.32
2023-02-12T23:54:31.844Z,11.57
2023-02-12T23:56:58.336Z,12.40
2023-02-12T23:59:25.673Z,11.43
